Flight Track Log - Related Links

Times and Time Zones

All times are in EDT time to prevent confusion due to time zone crossing. See the N769MB flight status page for this flight to view local times or setup timezone preferences in your user account.

Time Position Orientation Groundspeed Altitude Reporting Facility
EDT Latitude Longitude Course Direction KTS MPH feet Rate Location/Type
Sat 12:46:27 PM 30.4444 -85.7936 344° North 163 188 8,800  Level Jacksonville Center
Sat 12:47:27 PM 30.4858 -85.8117 339° North 163 188 11,300 2,450 Climbing Jacksonville Center
Sat 12:48:27 PM 30.5250 -85.8272 341° North 158 182 13,700 2,400 Climbing Jacksonville Center
Sat 12:49:00 PM 30.7824 -85.9696 341° North  Level FlightAware Approximate
Sat 12:49:27 PM 30.5622 -85.8431 340° North 146 168 16,100  Level Jacksonville Center
Sat 12:50:00 PM 30.8449 -85.9946 341° North  Level FlightAware Approximate
Sat 12:50:27 PM 30.5994 -85.8611 337° Northwest 146 168 17,900  Level Jacksonville Center
Sat 12:51:27 PM 30.6469 -85.8819 339° North 159 183 19,900 2,050 Climbing Jacksonville Center
Sat 12:52:27 PM 30.6883 -85.9000 339° North 159 183 22,000 1,950 Climbing Jacksonville Center
Sat 12:53:27 PM 30.7336 -85.9183 341° North 164 189 23,800 1,700 Climbing Jacksonville Center
Sat 12:54:27 PM 30.7792 -85.9392 339° North 169 194 25,400 1,100 Climbing Jacksonville Center
Sat 12:55:27 PM 30.8267 -85.9600 339° North 169 194 26,000 300 Climbing Jacksonville Center
Sat 12:56:27 PM 30.8908 -85.9864 341° North 199 229 26,000  Level Jacksonville Center
Sat 12:57:27 PM 30.9567 -86.0175 338° Northwest 232 267 26,000  Level Jacksonville Center
Sat 12:58:27 PM 31.0250 -86.0464 340° North 251 289 26,000  Level Jacksonville Center
Sat 12:59:27 PM 31.0950 -86.0803 337° Northwest 257 296 26,000  Level Jacksonville Center
Sat 01:01:32 PM 31.2467 -86.1422 341° North 276 318 26,000  Level Atlanta Center
Sat 01:02:32 PM 31.3192 -86.1753 339° North 276 318 26,000  Level Atlanta Center
Sat 01:03:32 PM 31.3875 -86.2061 339° North 271 312 26,000  Level Atlanta Center
Sat 01:04:32 PM 31.4578 -86.2372 339° North 266 306 26,000  Level Atlanta Center
Sat 01:05:32 PM 31.5283 -86.2706 338° Northwest 266 306 26,000  Level Atlanta Center
Sat 01:06:32 PM 31.5986 -86.3014 340° North 266 306 26,000  Level Atlanta Center
Sat 01:07:32 PM 31.6689 -86.3325 339° North 266 306 26,000  Level Atlanta Center
Sat 01:08:32 PM 31.7372 -86.3636 339° North 266 306 26,000  Level Atlanta Center
Sat 01:09:32 PM 31.8078 -86.3947 339° North 266 306 26,000  Level Atlanta Center
Sat 01:10:32 PM 31.8781 -86.4233 341° North 266 306 26,000  Level Atlanta Center
Sat 01:11:32 PM 31.9483 -86.4572 338° Northwest 266 306 26,000  Level Atlanta Center
Sat 01:12:32 PM 32.0147 -86.4858 340° North 275 316 26,000  Level Atlanta Center
Sat 01:13:32 PM 32.0850 -86.5197 338° Northwest 275 316 26,000  Level Atlanta Center
Sat 01:14:32 PM 32.1531 -86.5508 339° North 270 311 26,000  Level Atlanta Center
Sat 01:15:32 PM 32.2256 -86.5825 340° North 270 311 26,000  Level Atlanta Center
Sat 01:16:32 PM 32.2939 -86.6139 339° North 270 311 26,000  Level Atlanta Center
Sat 01:17:32 PM 32.3600 -86.6428 340° North 270 311 26,000  Level Atlanta Center
Sat 01:18:32 PM 32.4303 -86.6769 338° Northwest 270 311 26,000  Level Atlanta Center
Sat 01:19:32 PM 32.5067 -86.7111 339° North 270 311 26,000  Level Atlanta Center
Sat 01:20:32 PM 32.5647 -86.7350 341° North 263 303 26,000  Level Atlanta Center
Sat 01:21:32 PM 32.6347 -86.7669 339° North 263 303 26,000  Level Atlanta Center
Sat 01:22:32 PM 32.7031 -86.7986 339° North 263 303 26,000  Level Atlanta Center
Sat 01:23:32 PM 32.7817 -86.8233 345° North 268 308 26,000  Level Atlanta Center
Sat 01:24:32 PM 32.8458 -86.8575 336° Northwest 268 308 26,000  Level Atlanta Center
Sat 01:25:32 PM 32.9139 -86.8942 336° Northwest 268 308 26,000  Level Atlanta Center
Sat 01:26:32 PM 32.9839 -86.9264 339° North 268 308 26,000  Level Atlanta Center
Sat 01:27:32 PM 33.0519 -86.9608 337° Northwest 268 308 26,000  Level Atlanta Center
Sat 01:28:32 PM 33.1222 -86.9928 339° North 268 308 26,000  Level Atlanta Center
Sat 01:29:32 PM 33.1944 -87.0225 341° North 268 308 26,000  Level Atlanta Center
Sat 01:30:32 PM 33.2692 -87.0500 343° North 268 308 26,000  Level Atlanta Center
Sat 01:31:32 PM 33.3411 -87.0872 337° Northwest 262 302 26,000  Level Atlanta Center
Sat 01:32:32 PM 33.4114 -87.1222 337° Northwest 262 302 26,000  Level Atlanta Center
Sat 01:33:32 PM 33.4814 -87.1544 339° North 267 307 26,000  Level Atlanta Center
Sat 01:34:32 PM 33.5517 -87.1869 339° North 267 307 26,000  Level Atlanta Center
Sat 01:36:56 PM 33.7167 -87.2656 338° Northwest 272 313 26,000  Level Memphis Center
Sat 01:37:56 PM 33.7758 -87.2908 340° North 267 307 26,000  Level Memphis Center
Sat 01:38:56 PM 33.8519 -87.3283 338° Northwest 274 315 26,000  Level Memphis Center
Sat 01:39:56 PM 33.9258 -87.3606 340° North 274 315 26,000  Level Memphis Center
Sat 01:40:56 PM 33.9953 -87.3958 337° Northwest 267 307 26,000  Level Memphis Center
Sat 01:41:56 PM 34.0692 -87.4258 341° North 274 315 26,000  Level Memphis Center
Sat 01:42:56 PM 34.1389 -87.4661 334° Northwest 267 307 26,000  Level Memphis Center
Sat 01:43:56 PM 34.2169 -87.4986 341° North 272 313 26,000  Level Memphis Center
Sat 01:44:56 PM 34.2825 -87.5342 336° Northwest 272 313 26,000 -100 Level Memphis Center
Sat 01:45:56 PM 34.3561 -87.5669 340° North 272 313 25,800 -650 Descending Memphis Center
Sat 01:46:56 PM 34.4342 -87.5997 341° North 283 326 24,700 -1,300 Descending Memphis Center
Sat 01:47:56 PM 34.5103 -87.6400 336° Northwest 294 338 23,200 -1,500 Descending Memphis Center
Sat 01:48:56 PM 34.5861 -87.6756 339° North 299 344 21,700 -1,500 Descending Memphis Center
Sat 01:49:56 PM 34.6578 -87.7086 339° North 287 330 20,200 -1,500 Descending Memphis Center
Sat 01:50:56 PM 34.7314 -87.7442 338° Northwest 287 330 18,700 -1,350 Descending Memphis Center
Sat 01:51:56 PM 34.8011 -87.7775 339° North 287 330 17,500 -1,350 Descending Memphis Center
Sat 01:52:56 PM 34.8686 -87.8133 336° Northwest 279 321 16,000 -1,500 Descending Memphis Center
Sat 01:53:56 PM 34.9381 -87.8492 337° Northwest 279 321 14,500 -1,500 Descending Memphis Center
Sat 01:54:56 PM 35.0075 -87.8800 340° North 279 321 13,000 -1,500 Descending Memphis Center
Sat 01:55:56 PM 35.0750 -87.9136 338° Northwest 267 307 11,500 -1,500 Descending Memphis Center
Sat 01:56:56 PM 35.1425 -87.9472 338° Northwest 267 307 10,000 -1,500 Descending Memphis Center
Sat 01:57:56 PM 35.2075 -87.9758 340° North 255 293 8,500 -1,500 Descending Memphis Center
Sat 01:58:56 PM 35.2731 -88.0097 337° Northwest 255 293 7,000 -1,450 Descending Memphis Center
Sat 01:59:56 PM 35.3425 -88.0433 338° Northwest 255 293 5,600 -1,500 Descending Memphis Center
Sat 02:00:56 PM 35.4036 -88.0772 336° Northwest 255 293 4,000 -1,350 Descending Memphis Center
Sat 02:01:56 PM 35.4667 -88.1036 341° North 250 288 2,900 -650 Descending Memphis Center
Sat 02:02:56 PM 35.5233 -88.1300 339° North 233 268 2,700 -200 Descending Memphis Center

Login

Don't have an account? Register now (free) for customized features, flight alerts, and more!